Time;durP1;ratioP1;P1;durP2;ratioP2;P2;SDS_P1;SDS_P2;PMS_P1;PMS_P2;Temp;Humidity;BMP_temperature;BMP_pressure;BME280_temperature;BME280_humidity;BME280_pressure;Samples;Min_cycle;Max_cycle;Signal;HPM_P1;HPM_P2
2022/07/26 00:00:11;;;;;;;1.88;0.20;;;;;;;19.68;58.01;101197.41;7389337;19;20305;-65
2022/07/26 00:02:39;;;;;;;2.22;0.20;;;;;;;19.66;58.11;101198.66;7389176;19;20015;-65
2022/07/26 00:05:16;;;;;;;3.95;0.20;;;;;;;19.63;58.44;101199.84;7386779;19;20130;-65
2022/07/26 00:07:44;;;;;;;3.42;0.47;;;;;;;19.62;58.80;101203.56;7389166;19;20090;-65
2022/07/26 00:10:12;;;;;;;1.52;0.30;;;;;;;19.59;58.69;101194.13;7390459;19;20399;-65
2022/07/26 00:12:40;;;;;;;2.58;0.20;;;;;;;19.56;58.44;101207.84;7387634;19;20015;-66
2022/07/26 00:15:09;;;;;;;2.10;0.20;;;;;;;19.51;58.62;101209.47;7387985;19;20025;-66
2022/07/26 00:17:37;;;;;;;2.70;0.20;;;;;;;19.55;58.91;101208.91;7390566;19;20093;-66
2022/07/26 00:20:05;;;;;;;5.28;0.28;;;;;;;19.53;59.04;101202.94;7387888;19;20016;-65
2022/07/26 00:22:34;;;;;;;2.33;0.28;;;;;;;19.58;58.77;101213.81;7388491;19;20019;-65
2022/07/26 00:25:07;;;;;;;4.45;0.30;;;;;;;19.58;58.95;101213.81;7390668;19;20087;-66
2022/07/26 00:27:37;;;;;;;3.20;0.30;;;;;;;19.60;59.05;101203.78;7389989;19;20006;-66
2022/07/26 00:30:06;;;;;;;5.63;0.30;;;;;;;19.63;58.95;101207.88;7388559;19;20010;-65
2022/07/26 00:32:33;;;;;;;2.70;0.20;;;;;;;19.65;59.05;101213.84;7388660;19;20365;-65
2022/07/26 00:35:00;;;;;;;6.40;0.28;;;;;;;19.67;58.87;101211.78;7382301;19;20021;-65
2022/07/26 00:37:27;;;;;;;3.00;0.30;;;;;;;19.67;58.45;101213.63;7385514;19;20409;-65
2022/07/26 00:39:54;;;;;;;4.72;0.30;;;;;;;19.61;58.77;101204.56;7385556;19;20018;-66
2022/07/26 00:42:21;;;;;;;2.35;0.20;;;;;;;19.56;58.81;101204.34;7388934;19;20471;-66
2022/07/26 00:44:52;;;;;;;3.25;0.30;;;;;;;19.55;59.04;101216.06;7387679;19;20419;-65
2022/07/26 00:47:19;;;;;;;5.03;0.30;;;;;;;19.56;59.24;101215.84;7388625;19;20090;-66
2022/07/26 00:49:46;;;;;;;2.03;0.20;;;;;;;19.57;58.94;101217.50;7386992;19;20349;-63
2022/07/26 00:52:13;;;;;;;2.85;0.20;;;;;;;19.57;59.39;101217.50;7388186;19;20521;-62
2022/07/26 00:54:42;;;;;;;2.38;0.50;;;;;;;19.58;59.06;101221.84;7387013;19;20007;-62
2022/07/26 00:57:10;;;;;;;5.00;0.30;;;;;;;19.60;59.22;101219.78;7389390;19;20014;-62
2022/07/26 00:59:37;;;;;;;4.68;0.20;;;;;;;19.61;58.90;101213.41;7389130;19;20034;-62
2022/07/26 01:02:06;;;;;;;5.13;0.30;;;;;;;19.62;58.97;101214.22;7388249;19;20021;-62
2022/07/26 01:04:34;;;;;;;1.67;0.25;;;;;;;19.60;59.33;101214.44;7387065;19;20418;-62
2022/07/26 01:07:01;;;;;;;2.17;0.28;;;;;;;19.62;58.64;101211.56;7388426;19;20389;-62
2022/07/26 01:09:40;;;;;;;2.85;0.20;;;;;;;19.64;58.71;101210.34;7385214;19;20558;-62
2022/07/26 01:12:08;;;;;;;1.63;0.22;;;;;;;19.63;59.35;101211.38;7389218;19;20021;-62
2022/07/26 01:14:35;;;;;;;3.25;0.30;;;;;;;19.61;59.49;101212.56;7384047;19;20015;-62
2022/07/26 01:17:02;;;;;;;4.78;0.40;;;;;;;19.57;59.58;101214.00;7387591;19;20086;-66
2022/07/26 01:19:29;;;;;;;3.45;0.47;;;;;;;19.53;59.62;101210.94;7383713;19;20654;-65
2022/07/26 01:21:56;;;;;;;4.13;0.30;;;;;;;19.51;59.89;101204.97;7385849;19;20034;-65
2022/07/26 01:24:23;;;;;;;5.30;0.30;;;;;;;19.46;60.03;101217.25;7387496;19;20380;-61
2022/07/26 01:26:50;;;;;;;3.92;0.30;;;;;;;19.45;60.10;101211.13;7387771;19;20029;-61
2022/07/26 01:29:17;;;;;;;5.85;0.40;;;;;;;19.42;59.98;101210.66;7386159;19;20007;-61
2022/07/26 01:31:44;;;;;;;1.80;0.20;;;;;;;19.36;60.68;101214.13;7388555;19;20010;-61
2022/07/26 01:34:11;;;;;;;4.30;0.30;;;;;;;19.34;60.40;101208.19;7383273;19;20022;-62
2022/07/26 01:36:38;;;;;;;1.88;0.30;;;;;;;19.32;60.59;101213.72;7387531;19;20014;-62
2022/07/26 01:39:06;;;;;;;4.35;0.30;;;;;;;19.24;60.83;101221.91;7385061;19;20022;-63
2022/07/26 01:41:33;;;;;;;4.20;0.30;;;;;;;19.21;61.07;101223.13;7387734;19;20017;-63
2022/07/26 01:44:04;;;;;;;1.65;0.20;;;;;;;19.23;61.32;101222.94;7384721;19;20576;-63
2022/07/26 01:46:33;;;;;;;2.35;0.22;;;;;;;19.18;61.31;101225.38;7387601;19;20014;-62
2022/07/26 01:49:00;;;;;;;3.90;0.40;;;;;;;19.21;61.03;101222.28;7382955;19;20357;-61
2022/07/26 01:51:27;;;;;;;2.78;0.30;;;;;;;19.16;61.62;101230.88;7387413;19;20018;-62
2022/07/26 01:53:54;;;;;;;4.00;0.28;;;;;;;19.18;61.50;101231.53;7384819;19;20098;-64
2022/07/26 01:56:21;;;;;;;2.05;0.50;;;;;;;19.17;61.59;101232.53;7387478;19;20018;-65
2022/07/26 01:58:49;;;;;;;3.15;0.30;;;;;;;19.19;62.17;101232.34;7384338;19;20385;-64
2022/07/26 02:01:16;;;;;;;3.67;0.30;;;;;;;19.23;61.88;101237.09;7386329;19;20074;-66
2022/07/26 02:04:03;;;;;;;4.00;0.30;;;;;;;19.28;61.49;101225.00;7381340;19;20053;-65
2022/07/26 02:06:30;;;;;;;3.20;0.85;;;;;;;19.27;61.45;101226.00;7385725;19;20722;-63
2022/07/26 02:08:57;;;;;;;1.83;0.20;;;;;;;19.30;61.86;101230.97;7384446;19;20046;-66
2022/07/26 02:11:24;;;;;;;4.30;0.30;;;;;;;19.28;61.73;101231.16;7386708;19;20569;-66
2022/07/26 02:13:51;;;;;;;3.45;0.40;;;;;;;19.23;61.92;101228.25;7382268;19;20070;-65
2022/07/26 02:16:19;;;;;;;2.33;0.40;;;;;;;19.16;62.16;101243.41;7385910;19;20394;-66
2022/07/26 02:18:46;;;;;;;4.90;0.30;;;;;;;19.12;62.90;101234.16;7382584;19;20062;-65
2022/07/26 02:21:12;;;;;;;6.38;0.30;;;;;;;19.05;62.71;101230.63;7382197;19;20002;-66
2022/07/26 02:23:39;;;;;;;3.30;0.55;;;;;;;19.02;62.89;101237.19;7384569;19;20443;-65
2022/07/26 02:26:07;;;;;;;2.38;0.35;;;;;;;19.02;63.51;101236.38;7384042;19;20022;-66
2022/07/26 02:28:34;;;;;;;1.38;0.30;;;;;;;19.01;63.67;101237.38;7386957;19;20025;-66
2022/07/26 02:31:01;;;;;;;2.15;0.30;;;;;;;18.98;63.50;101241.28;7385103;19;20014;-65
2022/07/26 02:33:28;;;;;;;1.92;0.30;;;;;;;19.00;63.80;101241.91;7383019;19;20021;-66
2022/07/26 02:35:55;;;;;;;4.00;0.30;;;;;;;18.99;63.93;101244.78;7384529;19;20010;-65
2022/07/26 02:38:22;;;;;;;4.97;0.30;;;;;;;18.99;64.11;101240.28;7382696;19;20089;-66
2022/07/26 02:40:51;;;;;;;1.92;0.30;;;;;;;18.97;64.16;101239.63;7384974;19;20555;-66
2022/07/26 02:43:18;;;;;;;1.92;0.60;;;;;;;19.00;64.30;101246.41;7387114;19;20434;-63
2022/07/26 02:45:45;;;;;;;4.93;0.40;;;;;;;19.03;64.54;101246.03;7385914;19;20014;-65
2022/07/26 02:48:29;;;;;;;2.40;0.30;;;;;;;18.97;64.77;101255.63;7383240;19;20022;-66
2022/07/26 02:50:56;;;;;;;3.85;0.30;;;;;;;18.98;65.03;101246.63;7377360;19;20031;-63
2022/07/26 02:53:23;;;;;;;3.50;0.60;;;;;;;18.98;64.96;101257.28;7385419;19;20485;-63
2022/07/26 02:55:50;;;;;;;1.73;0.22;;;;;;;19.02;65.11;101255.03;7386930;19;20019;-63
2022/07/26 02:58:20;;;;;;;3.63;0.38;;;;;;;18.97;65.35;101257.47;7381573;19;20580;-63
2022/07/26 03:00:47;;;;;;;2.35;0.30;;;;;;;18.96;65.42;101256.66;7380850;19;20050;-63
2022/07/26 03:03:14;;;;;;;2.15;0.30;;;;;;;18.95;65.61;101262.19;7383857;19;20010;-63
2022/07/26 03:05:41;;;;;;;3.78;0.40;;;;;;;18.93;65.73;101259.72;7379179;19;20027;-63
2022/07/26 03:08:08;;;;;;;3.55;0.40;;;;;;;18.91;65.89;101261.75;7384306;19;20026;-63
2022/07/26 03:10:35;;;;;;;1.83;0.40;;;;;;;18.92;65.78;101267.91;7379985;19;20014;-66
2022/07/26 03:13:02;;;;;;;4.68;0.50;;;;;;;18.91;65.89;101261.75;7384800;19;20018;-65
2022/07/26 03:15:29;;;;;;;5.22;0.40;;;;;;;18.90;65.93;101265.44;7381531;19;20377;-65
2022/07/26 03:17:56;;;;;;;2.08;0.35;;;;;;;18.90;66.44;101265.44;7384663;19;20042;-66
2022/07/26 03:20:23;;;;;;;2.55;0.40;;;;;;;18.88;66.50;101270.16;7379279;19;20247;-66
2022/07/26 03:22:50;;;;;;;1.98;0.30;;;;;;;18.86;66.49;101272.19;7384870;19;20361;-66
2022/07/26 03:25:16;;;;;;;5.05;0.50;;;;;;;18.84;66.93;101284.09;7383575;19;20016;-66
2022/07/26 03:27:43;;;;;;;2.20;0.43;;;;;;;18.85;66.85;101283.88;7384746;19;20003;-66
2022/07/26 03:30:11;;;;;;;2.38;0.40;;;;;;;18.87;66.86;101278.34;7383913;19;20534;-65
2022/07/26 03:32:38;;;;;;;2.75;0.40;;;;;;;18.83;67.03;101279.75;7382155;19;20028;-64
2022/07/26 03:35:06;;;;;;;3.85;0.47;;;;;;;18.86;66.94;101282.03;7385722;19;20022;-66
2022/07/26 03:37:33;;;;;;;2.08;0.40;;;;;;;18.78;67.29;101272.34;7389812;19;20015;-66
2022/07/26 03:40:14;;;;;;;3.67;0.40;;;;;;;18.75;67.49;101294.06;7390421;19;20213;-64
2022/07/26 03:42:42;;;;;;;1.40;0.40;;;;;;;18.73;67.51;101291.59;7386970;19;20346;-65
2022/07/26 03:45:10;;;;;;;1.77;0.45;;;;;;;18.73;67.74;101296.13;7389912;19;20018;-66
2022/07/26 03:47:37;;;;;;;4.97;0.50;;;;;;;18.72;67.40;101291.78;7391486;19;20191;-65
2022/07/26 03:50:05;;;;;;;6.10;0.95;;;;;;;18.73;67.10;101290.78;7389319;19;20063;-66
2022/07/26 03:52:33;;;;;;;4.53;0.30;;;;;;;18.68;67.36;101294.03;7389956;19;20503;-65
2022/07/26 03:55:00;;;;;;;4.45;0.40;;;;;;;18.63;67.40;101299.13;7388559;19;20499;-65
2022/07/26 03:57:26;;;;;;;3.45;0.52;;;;;;;18.59;68.00;101297.84;7390843;19;20022;-61
2022/07/26 03:59:54;;;;;;;6.72;0.50;;;;;;;18.59;67.77;101303.16;7391087;19;20038;-62
2022/07/26 04:02:21;;;;;;;0.95;0.30;;;;;;;18.60;68.00;101304.81;7390245;19;20018;-61
2022/07/26 04:04:48;;;;;;;2.25;0.40;;;;;;;18.60;67.96;101296.81;7387275;19;20369;-63
2022/07/26 04:07:15;;;;;;;4.40;1.35;;;;;;;18.62;68.75;101301.97;7389089;19;20513;-63
2022/07/26 04:09:42;;;;;;;4.65;0.47;;;;;;;18.62;68.53;101308.13;7389081;19;20351;-64
2022/07/26 04:12:09;;;;;;;3.65;0.40;;;;;;;18.66;68.07;101306.72;7390552;19;20124;-64
2022/07/26 04:14:37;;;;;;;3.65;0.40;;;;;;;18.67;68.01;101300.38;7388228;19;20069;-64
2022/07/26 04:17:04;;;;;;;4.18;0.38;;;;;;;18.67;68.00;101304.88;7389933;19;20025;-64
2022/07/26 04:19:33;;;;;;;3.72;0.30;;;;;;;18.66;67.90;101306.72;7387293;19;20179;-64
2022/07/26 04:22:05;;;;;;;4.13;0.40;;;;;;;18.66;68.13;101304.06;7388901;19;20323;-66
2022/07/26 04:24:32;;;;;;;4.15;0.60;;;;;;;18.60;68.51;101304.81;7389630;19;20094;-65
2022/07/26 04:26:59;;;;;;;2.88;0.40;;;;;;;18.58;68.84;101311.38;7390211;19;20018;-61
2022/07/26 04:29:29;;;;;;;3.63;0.40;;;;;;;18.57;68.64;101307.88;7389620;19;20462;-62
2022/07/26 04:31:58;;;;;;;2.70;0.50;;;;;;;18.57;68.82;101310.56;7390173;19;20078;-62
2022/07/26 04:34:25;;;;;;;3.70;0.70;;;;;;;18.57;68.82;101323.06;7384506;19;20358;-61
2022/07/26 04:36:52;;;;;;;3.92;0.60;;;;;;;18.54;69.06;101320.78;7389544;19;20031;-63
2022/07/26 04:39:27;;;;;;;4.32;0.40;;;;;;;18.46;69.36;101323.53;7387142;19;20344;-63
2022/07/26 04:41:58;;;;;;;6.20;0.50;;;;;;;18.45;69.58;101330.72;7388224;19;20023;-63
2022/07/26 04:44:25;;;;;;;3.20;0.50;;;;;;;18.45;69.68;101337.88;7388715;19;20010;-63
2022/07/26 04:46:52;;;;;;;1.85;0.50;;;;;;;18.45;70.04;101340.53;7388776;19;20018;-63
2022/07/26 04:49:28;;;;;;;3.42;0.50;;;;;;;18.45;70.09;101345.88;7383053;19;20070;-63
2022/07/26 04:51:58;;;;;;;2.03;0.40;;;;;;;18.45;69.86;101343.19;7389478;19;20102;-62
2022/07/26 04:54:25;;;;;;;4.93;0.55;;;;;;;18.40;70.15;101346.44;7387889;19;20336;-63
2022/07/26 04:56:52;;;;;;;3.05;0.50;;;;;;;18.36;70.24;101346.00;7389094;19;20049;-65
2022/07/26 04:59:27;;;;;;;3.63;0.40;;;;;;;18.34;70.80;101350.69;7388668;19;20125;-65
2022/07/26 05:01:58;;;;;;;3.83;0.50;;;;;;;18.32;70.58;101363.41;7389497;19;20042;-65
2022/07/26 05:04:26;;;;;;;3.40;0.40;;;;;;;18.28;70.45;101359.47;7385969;19;20027;-65
2022/07/26 05:06:53;;;;;;;5.72;0.50;;;;;;;18.29;70.81;101355.78;7387309;19;20413;-65
2022/07/26 05:09:29;;;;;;;2.78;0.40;;;;;;;18.28;70.70;101356.81;7388435;19;20518;-65
2022/07/26 05:11:58;;;;;;;3.47;0.40;;;;;;;18.31;70.78;101363.59;7387563;19;20010;-66
2022/07/26 05:14:25;;;;;;;6.53;0.57;;;;;;;18.28;71.01;101370.13;7386756;19;20419;-66
2022/07/26 05:16:53;;;;;;;4.47;0.73;;;;;;;18.27;71.38;101373.81;7387298;19;20499;-66
2022/07/26 05:19:29;;;;;;;1.70;0.70;;;;;;;18.27;71.63;101371.13;7385539;19;20519;-66
2022/07/26 05:21:59;;;;;;;3.80;0.57;;;;;;;18.25;71.79;101369.66;7387107;19;20363;-68
2022/07/26 05:24:26;;;;;;;4.18;0.60;;;;;;;18.18;71.70;101361.63;7385917;19;20399;-66
2022/07/26 05:26:53;;;;;;;6.07;0.50;;;;;;;18.15;72.11;101367.31;7384837;19;20039;-66
2022/07/26 05:29:28;;;;;;;7.65;1.23;;;;;;;18.11;72.52;101375.88;7385968;19;20066;-67
2022/07/26 05:31:58;;;;;;;2.35;0.60;;;;;;;18.09;73.72;101383.22;7387612;19;20501;-63
2022/07/26 05:34:25;;;;;;;4.70;0.60;;;;;;;18.04;75.48;101391.78;7383309;19;20021;-62
2022/07/26 05:36:52;;;;;;;4.72;0.60;;;;;;;17.94;76.68;101392.06;7386664;19;20372;-62
2022/07/26 05:39:26;;;;;;;6.20;0.98;;;;;;;17.88;77.60;101390.16;7383734;19;20014;-63
2022/07/26 05:41:55;;;;;;;3.75;0.60;;;;;;;17.83;78.39;101392.53;7387818;19;20006;-66
2022/07/26 05:44:23;;;;;;;4.95;1.63;;;;;;;17.81;79.13;101391.09;7386880;19;20014;-65
2022/07/26 05:46:51;;;;;;;3.20;0.60;;;;;;;17.75;78.91;101391.84;7385526;19;20038;-65
2022/07/26 05:49:19;;;;;;;3.30;0.80;;;;;;;17.77;79.24;101397.81;7383852;19;20404;-65
2022/07/26 05:52:06;;;;;;;3.80;0.60;;;;;;;17.72;79.32;101397.53;7383190;19;20010;-65
2022/07/26 05:54:34;;;;;;;3.95;0.90;;;;;;;17.70;79.36;101394.22;7386264;19;20564;-66
2022/07/26 05:57:01;;;;;;;4.60;0.70;;;;;;;17.71;79.34;101398.53;7385392;19;20014;-66
2022/07/26 05:59:31;;;;;;;3.97;0.80;;;;;;;17.70;79.31;101392.41;7387498;19;20011;-66
2022/07/26 06:01:58;;;;;;;3.92;0.68;;;;;;;17.73;78.83;101394.69;7386449;19;20025;-66
2022/07/26 06:04:26;;;;;;;4.45;0.65;;;;;;;17.75;78.56;101397.16;7382402;19;20323;-66
2022/07/26 06:06:54;;;;;;;5.70;1.35;;;;;;;17.74;78.40;101401.66;7385120;19;20582;-65
2022/07/26 06:09:29;;;;;;;4.57;1.00;;;;;;;17.78;78.35;101407.44;7385850;19;20758;-65
2022/07/26 06:11:57;;;;;;;2.47;0.70;;;;;;;17.81;77.86;101404.41;7382818;19;20038;-66
2022/07/26 06:14:24;;;;;;;3.13;0.60;;;;;;;17.81;77.87;101404.41;7384714;19;20074;-65
2022/07/26 06:16:51;;;;;;;2.30;0.60;;;;;;;17.77;77.96;101409.28;7385151;19;20011;-66
2022/07/26 06:19:19;;;;;;;4.18;0.63;;;;;;;17.75;78.26;101413.97;7382928;19;20483;-62
2022/07/26 06:21:55;;;;;;;7.13;0.70;;;;;;;17.77;78.16;101411.94;7383428;19;20043;-63
2022/07/26 06:24:22;;;;;;;2.53;0.50;;;;;;;17.80;77.83;101411.56;7383998;19;20507;-63
2022/07/26 06:26:52;;;;;;;4.00;0.55;;;;;;;17.75;78.00;101408.63;7385575;19;20007;-63
2022/07/26 06:29:29;;;;;;;1.98;0.50;;;;;;;17.72;78.49;101414.34;7384015;19;20802;-66
2022/07/26 06:31:58;;;;;;;2.95;0.50;;;;;;;17.72;78.55;101421.50;7385475;19;20018;-66
2022/07/26 06:34:25;;;;;;;6.40;0.80;;;;;;;17.68;78.82;101417.53;7381246;19;20010;-66
2022/07/26 06:36:53;;;;;;;4.15;0.77;;;;;;;17.68;78.82;101429.00;7385026;19;20317;-67
2022/07/26 06:39:31;;;;;;;4.70;0.70;;;;;;;17.71;79.06;101423.34;7380781;19;20019;-65
2022/07/26 06:42:00;;;;;;;3.55;0.70;;;;;;;17.77;78.75;101427.09;7385741;19;20494;-65
2022/07/26 06:44:27;;;;;;;7.70;0.90;;;;;;;17.80;78.56;101430.22;7384498;19;20018;-67
2022/07/26 06:46:55;;;;;;;3.50;0.90;;;;;;;17.86;78.81;101421.47;7385614;19;20402;-67
2022/07/26 06:49:32;;;;;;;3.90;1.00;;;;;;;17.93;78.23;101430.38;7381162;19;20035;-67
2022/07/26 06:52:04;;;;;;;1.85;0.73;;;;;;;17.94;78.31;101433.84;7383932;19;20032;-66
2022/07/26 06:54:31;;;;;;;5.28;0.80;;;;;;;17.95;78.16;101440.84;7385735;19;20010;-66
2022/07/26 06:56:57;;;;;;;4.18;0.70;;;;;;;17.95;78.26;101444.34;7385029;19;20452;-66
2022/07/26 06:59:31;;;;;;;3.13;0.60;;;;;;;17.98;78.36;101447.66;7383920;19;20056;-65
2022/07/26 07:02:00;;;;;;;5.07;0.90;;;;;;;18.02;78.71;101455.06;7384274;19;20086;-65
2022/07/26 07:04:29;;;;;;;3.63;0.80;;;;;;;18.02;78.22;101454.25;7382041;19;20010;-66
2022/07/26 07:07:07;;;;;;;7.05;1.05;;;;;;;18.03;78.15;101454.03;7380591;19;20040;-66
2022/07/26 07:09:36;;;;;;;5.20;0.93;;;;;;;18.04;78.26;101458.34;7382800;19;20115;-62
2022/07/26 07:12:05;;;;;;;3.58;0.88;;;;;;;18.05;78.39;101449.38;7384935;19;20051;-66
2022/07/26 07:14:36;;;;;;;3.72;1.00;;;;;;;18.06;77.92;101447.53;7384321;19;20006;-62
2022/07/26 07:17:04;;;;;;;5.35;1.10;;;;;;;18.04;77.88;101454.88;7383329;19;20017;-63
2022/07/26 07:19:40;;;;;;;6.43;1.55;;;;;;;18.02;77.78;101457.75;7383481;19;20015;-64
2022/07/26 07:22:10;;;;;;;4.25;1.10;;;;;;;18.03;77.72;101461.22;7382982;19;20014;-63
2022/07/26 07:24:39;;;;;;;6.22;0.90;;;;;;;18.03;77.78;101464.69;7385214;19;20022;-65
2022/07/26 07:27:06;;;;;;;5.20;1.13;;;;;;;18.05;77.70;101468.00;7383386;19;20031;-66
2022/07/26 07:29:35;;;;;;;6.78;1.38;;;;;;;18.04;77.79;101476.19;7382534;19;20101;-66
2022/07/26 07:32:07;;;;;;;8.50;1.15;;;;;;;18.00;77.96;101475.72;7382466;19;20010;-68
2022/07/26 07:34:44;;;;;;;5.28;1.10;;;;;;;17.91;78.12;101464.34;7378728;19;20018;-66
2022/07/26 07:37:13;;;;;;;5.35;0.98;;;;;;;17.88;78.34;101472.69;7379964;19;20021;-68
2022/07/26 07:39:42;;;;;;;4.93;1.05;;;;;;;17.91;78.30;101475.00;7379984;19;20018;-66
2022/07/26 07:42:14;;;;;;;3.15;1.55;;;;;;;17.99;78.00;101466.09;7382125;19;20025;-65
2022/07/26 07:44:43;;;;;;;2.88;1.40;;;;;;;18.06;77.67;101471.50;7383063;19;20446;-65
2022/07/26 07:47:10;;;;;;;3.63;1.35;;;;;;;18.06;77.45;101467.00;7381940;19;20416;-65
2022/07/26 07:49:38;;;;;;;5.63;1.10;;;;;;;18.12;77.46;101468.94;7380636;19;20013;-65
2022/07/26 07:52:06;;;;;;;4.22;1.20;;;;;;;18.17;77.26;101471.88;7378772;19;20030;-65
2022/07/26 07:54:33;;;;;;;8.20;1.60;;;;;;;18.27;78.36;101471.56;7382418;19;20433;-66
2022/07/26 07:56:59;;;;;;;7.03;1.40;;;;;;;18.36;77.40;101470.44;7383616;19;20010;-66
2022/07/26 07:59:33;;;;;;;5.25;1.38;;;;;;;18.53;76.12;101471.03;7383066;19;20010;-63
2022/07/26 08:02:05;;;;;;;5.43;1.02;;;;;;;18.54;75.18;101472.72;7383048;19;20034;-62
2022/07/26 08:04:32;;;;;;;6.25;1.08;;;;;;;18.54;75.25;101468.19;7380841;19;20367;-64
2022/07/26 08:06:59;;;;;;;4.28;1.20;;;;;;;18.59;74.76;101473.78;7383091;19;20142;-65
2022/07/26 08:09:33;;;;;;;5.05;0.93;;;;;;;18.57;75.32;101475.81;7383477;19;20229;-65
2022/07/26 08:12:01;;;;;;;8.48;1.10;;;;;;;18.50;75.06;101477.56;7381092;19;20031;-67
2022/07/26 08:14:29;;;;;;;6.68;1.08;;;;;;;18.50;75.35;101474.88;7383610;19;20320;-65
2022/07/26 08:16:56;;;;;;;5.50;1.20;;;;;;;18.48;74.39;101482.28;7381060;19;20035;-64
2022/07/26 08:19:32;;;;;;;6.68;1.60;;;;;;;18.44;74.70;101477.50;7381674;19;20019;-65
2022/07/26 08:22:08;;;;;;;6.78;2.45;;;;;;;18.45;75.18;101477.28;7385429;19;20037;-65
2022/07/26 08:24:35;;;;;;;43.63;3.38;;;;;;;18.46;75.18;101486.94;7388586;19;20018;-66
2022/07/26 08:27:02;;;;;;;7.60;1.45;;;;;;;18.47;74.74;101485.09;7387891;19;20115;-65
2022/07/26 08:29:33;;;;;;;9.75;1.67;;;;;;;18.54;74.47;101486.84;7389463;19;20018;-66
2022/07/26 08:32:01;;;;;;;8.02;1.33;;;;;;;18.55;73.75;101480.50;7388944;19;20549;-67
2022/07/26 08:34:28;;;;;;;6.95;1.30;;;;;;;18.52;74.62;101482.72;7386155;19;20014;-66
2022/07/26 08:36:55;;;;;;;3.30;1.08;;;;;;;18.57;74.92;101488.34;7385647;19;20360;-66
2022/07/26 08:39:42;;;;;;;6.28;1.00;;;;;;;18.65;74.63;101494.34;7384531;19;20014;-66
2022/07/26 08:42:18;;;;;;;5.40;2.35;;;;;;;18.74;74.66;101492.41;7388532;19;20015;-66
2022/07/26 08:44:49;;;;;;;7.50;1.50;;;;;;;18.82;74.88;101483.44;7387580;19;20332;-67
2022/07/26 08:47:19;;;;;;;4.75;1.30;;;;;;;18.89;72.54;101487.03;7388498;19;20013;-65
2022/07/26 08:50:06;;;;;;;4.20;1.13;;;;;;;18.92;72.62;101492.78;7386720;19;20607;-66
2022/07/26 08:52:33;;;;;;;9.10;1.40;;;;;;;18.96;73.06;101491.38;7385417;19;20015;-66
2022/07/26 08:55:00;;;;;;;4.90;1.15;;;;;;;19.03;72.97;101494.13;7388874;19;20017;-66
2022/07/26 08:57:27;;;;;;;9.02;1.20;;;;;;;19.05;71.96;101498.25;7386072;19;20445;-66
2022/07/26 09:00:33;;;;;;;5.75;1.30;;;;;;;19.08;71.38;101499.72;7389136;19;20035;-66
2022/07/26 09:03:02;;;;;;;10.40;1.63;;;;;;;19.08;70.77;101497.03;7384411;19;20504;-66
2022/07/26 09:05:31;;;;;;;5.82;1.00;;;;;;;19.07;70.94;101501.56;7380197;19;20017;-65
2022/07/26 09:08:00;;;;;;;4.03;1.20;;;;;;;19.13;70.95;101497.28;7386833;19;20048;-66
2022/07/26 09:10:42;;;;;;;5.07;1.10;;;;;;;19.18;70.79;101503.72;7387211;19;20006;-66
2022/07/26 09:13:10;;;;;;;4.75;1.35;;;;;;;19.19;71.12;101510.69;7387903;19;20010;-66
2022/07/26 09:15:37;;;;;;;8.50;1.20;;;;;;;19.22;70.95;101507.63;7386516;19;21423;-66
2022/07/26 09:18:04;;;;;;;7.13;1.30;;;;;;;19.28;70.73;101514.03;7386355;19;20014;-65
2022/07/26 09:20:31;;;;;;;6.45;1.20;;;;;;;19.31;69.91;101519.00;7384340;19;20611;-66
2022/07/26 09:23:12;;;;;;;6.88;1.30;;;;;;;19.28;69.43;101521.22;7388136;19;20338;-66
2022/07/26 09:25:42;;;;;;;10.85;1.77;;;;;;;19.26;69.66;101517.91;7388527;19;20010;-66
2022/07/26 09:28:28;;;;;;;5.40;1.30;;;;;;;19.20;69.99;101519.50;7387550;19;20484;-66
2022/07/26 09:31:01;;;;;;;5.03;1.30;;;;;;;19.19;70.54;101518.69;7387054;19;20010;-66
2022/07/26 09:33:45;;;;;;;7.70;1.13;;;;;;;19.26;70.16;101520.56;7385458;19;20086;-63
2022/07/26 09:36:13;;;;;;;5.13;0.93;;;;;;;19.33;68.78;101522.31;7382742;19;20590;-63
2022/07/26 09:38:46;;;;;;;3.30;0.77;;;;;;;19.33;68.21;101526.81;7385596;19;20014;-63
2022/07/26 09:41:20;;;;;;;3.33;0.80;;;;;;;19.38;68.26;101519.06;7386748;19;20018;-62
2022/07/26 09:43:49;;;;;;;3.80;0.70;;;;;;;19.46;67.72;101521.59;7386139;19;20507;-67
2022/07/26 09:46:21;;;;;;;4.10;0.93;;;;;;;19.55;68.44;101520.47;7386270;19;20053;-64
2022/07/26 09:48:48;;;;;;;3.90;0.77;;;;;;;19.64;67.31;101521.94;7384622;19;20047;-64
2022/07/26 09:51:36;;;;;;;5.30;0.80;;;;;;;19.69;66.67;101527.53;7385644;19;20006;-67
2022/07/26 09:54:04;;;;;;;2.95;0.70;;;;;;;19.71;66.76;101524.69;7385605;19;20066;-66
2022/07/26 09:56:48;;;;;;;2.40;0.70;;;;;;;19.75;66.94;101518.75;7384172;19;20018;-67
2022/07/26 09:59:18;;;;;;;2.15;0.60;;;;;;;19.78;67.04;101531.69;7386377;19;20542;-66
2022/07/26 10:01:59;;;;;;;7.60;1.00;;;;;;;19.81;66.80;101527.81;7385131;19;20011;-65
2022/07/26 10:04:26;;;;;;;4.90;0.70;;;;;;;19.84;66.84;101530.09;7383221;19;20388;-65
2022/07/26 10:06:56;;;;;;;5.68;0.90;;;;;;;19.83;66.43;101533.78;7385862;19;20059;-65
2022/07/26 10:09:58;;;;;;;5.95;1.20;;;;;;;19.80;66.29;101526.16;7385482;19;20068;-65
2022/07/26 10:12:30;;;;;;;6.82;1.02;;;;;;;19.80;67.35;101523.50;7383864;19;20019;-66
2022/07/26 10:14:58;;;;;;;;;;;;;;;19.79;66.08;101536.03;7386731;19;20006;-65
2022/07/26 10:17:29;;;;;;;4.10;0.93;;;;;;;19.76;66.77;101528.38;7382157;19;19928;-66
2022/07/26 10:20:04;;;;;;;6.22;0.85;;;;;;;19.75;66.03;101534.78;7383981;19;20110;-66
2022/07/26 10:22:49;;;;;;;5.70;0.65;;;;;;;19.76;65.94;101535.59;7382575;19;20014;-66
2022/07/26 10:25:16;;;;;;;5.70;0.82;;;;;;;19.79;65.42;101543.22;7384864;19;20403;-64
2022/07/26 10:27:46;;;;;;;3.25;0.70;;;;;;;19.81;65.50;101536.63;7385380;19;20018;-66
2022/07/26 10:30:16;;;;;;;3.40;0.60;;;;;;;19.84;65.47;101533.59;7385158;19;20011;-64
2022/07/26 10:32:49;;;;;;;5.03;0.57;;;;;;;19.88;65.43;101540.19;7385161;19;20018;-67
2022/07/26 10:35:43;;;;;;;5.13;1.02;;;;;;;19.90;65.27;101538.16;7381414;19;20093;-66
2022/07/26 10:38:25;;;;;;;6.60;0.60;;;;;;;19.92;65.39;101538.78;7384164;19;20507;-66
2022/07/26 10:41:00;;;;;;;8.38;0.60;;;;;;;19.93;64.85;101532.41;7385969;19;20086;-66
2022/07/26 10:43:29;;;;;;;2.35;0.60;;;;;;;19.97;65.01;101538.19;7384857;19;20687;-67
2022/07/26 10:46:17;;;;;;;4.90;0.60;;;;;;;20.02;64.22;101535.75;7383946;19;20020;-66
2022/07/26 10:49:02;;;;;;;4.95;0.63;;;;;;;20.08;64.08;101546.47;7380997;19;20587;-66
2022/07/26 10:51:35;;;;;;;3.70;0.40;;;;;;;20.11;63.71;101547.13;7384777;19;20029;-66
2022/07/26 10:54:08;;;;;;;3.67;0.43;;;;;;;20.12;63.79;101548.72;7384546;19;20014;-65
2022/07/26 10:56:36;;;;;;;4.32;0.50;;;;;;;20.15;64.03;101548.34;7383336;19;20033;-62
2022/07/26 10:59:05;;;;;;;3.40;0.35;;;;;;;20.19;63.98;101544.25;7384221;19;20042;-63
2022/07/26 11:01:40;;;;;;;3.80;0.70;;;;;;;20.21;64.03;101540.38;7386345;19;20015;-63
2022/07/26 11:04:21;;;;;;;3.88;0.60;;;;;;;20.23;64.27;101549.00;7381434;19;20015;-63
2022/07/26 11:06:48;;;;;;;3.63;0.50;;;;;;;20.25;64.18;101548.81;7384270;19;20018;-61
2022/07/26 11:09:17;;;;;;;2.83;0.50;;;;;;;20.22;62.97;101552.69;7383896;19;20006;-62
2022/07/26 11:11:47;;;;;;;3.30;0.50;;;;;;;20.20;62.17;101545.91;7384439;19;20032;-62
2022/07/26 11:14:15;;;;;;;3.33;0.50;;;;;;;20.19;63.12;101549.59;7382393;19;20506;-66
2022/07/26 11:16:46;;;;;;;4.38;0.40;;;;;;;20.18;62.33;101546.09;7382217;19;20111;-63
2022/07/26 11:19:19;;;;;;;5.53;0.47;;;;;;;20.19;61.68;101549.59;7379487;19;20010;-64
2022/07/26 11:21:59;;;;;;;3.22;0.50;;;;;;;20.16;62.35;101534.81;7382881;19;20025;-62
2022/07/26 11:24:27;;;;;;;5.35;0.43;;;;;;;20.18;61.89;101537.25;7384492;19;20018;-61
2022/07/26 11:26:55;;;;;;;1.98;0.50;;;;;;;20.14;62.09;101536.00;7381954;19;20510;-62
2022/07/26 11:29:36;;;;;;;2.67;0.40;;;;;;;20.12;62.49;101536.19;7382095;19;20400;-68
2022/07/26 11:32:22;;;;;;;4.85;0.50;;;;;;;20.12;62.11;101541.53;7384942;19;20038;-66
2022/07/26 11:35:03;;;;;;;7.72;0.57;;;;;;;20.15;61.98;101543.00;7380266;19;20507;-66
2022/07/26 11:37:31;;;;;;;2.72;0.40;;;;;;;20.11;62.20;101534.56;7377586;19;20010;-66